createdAt,value
2023-04-10T00:02:04.467Z,41.67
2023-04-10T00:04:32.571Z,42.35
2023-04-10T00:07:01.926Z,42.22
2023-04-10T00:09:29.962Z,41.67
2023-04-10T00:11:57.969Z,41.85
2023-04-10T00:14:25.862Z,41.70
2023-04-10T00:16:53.874Z,42.10
2023-04-10T00:19:21.812Z,41.80
2023-04-10T00:21:49.793Z,40.97
2023-04-10T00:24:19.365Z,42.03
2023-04-10T00:26:47.264Z,41.70
2023-04-10T00:29:15.360Z,41.67
2023-04-10T00:31:43.323Z,41.40
2023-04-10T00:34:11.791Z,41.88
2023-04-10T00:36:39.680Z,41.70
2023-04-10T00:39:08.675Z,41.40
2023-04-10T00:41:38.107Z,42.40
2023-04-10T00:44:06.021Z,41.80
2023-04-10T00:46:35.303Z,41.97
2023-04-10T00:49:03.384Z,41.25
2023-04-10T00:51:31.861Z,41.38
2023-04-10T00:54:02.278Z,41.60
2023-04-10T00:56:32.059Z,41.60
2023-04-10T00:59:04.083Z,42.05
2023-04-10T01:01:33.324Z,41.50
2023-04-10T01:04:01.601Z,42.40
2023-04-10T01:06:43.552Z,42.70
2023-04-10T01:09:18.481Z,42.40
2023-04-10T01:11:52.493Z,42.00
2023-04-10T01:14:31.970Z,42.60
2023-04-10T01:17:06.318Z,42.30
2023-04-10T01:20:00.769Z,42.70
2023-04-10T01:22:34.040Z,43.00
2023-04-10T01:25:17.675Z,42.30
2023-04-10T01:27:53.880Z,41.92
2023-04-10T01:30:25.630Z,42.20
2023-04-10T01:32:58.003Z,42.42
2023-04-10T01:35:26.967Z,41.85
2023-04-10T01:37:56.054Z,42.08
2023-04-10T01:40:27.638Z,41.67
2023-04-10T01:42:58.748Z,42.38
2023-04-10T01:45:29.853Z,42.20
2023-04-10T01:47:58.327Z,42.28
2023-04-10T01:50:28.614Z,42.20
2023-04-10T01:52:58.439Z,42.50
2023-04-10T01:55:26.808Z,42.30
2023-04-10T01:57:55.798Z,42.60
2023-04-10T02:00:23.761Z,42.65
2023-04-10T02:02:53.506Z,41.90
2023-04-10T02:05:23.127Z,41.60
2023-04-10T02:07:57.423Z,41.90
2023-04-10T02:10:31.417Z,41.80
2023-04-10T02:13:04.225Z,42.20
2023-04-10T02:15:33.762Z,42.30
2023-04-10T02:18:06.430Z,42.20
2023-04-10T02:20:34.670Z,42.00
2023-04-10T02:23:04.090Z,41.88
2023-04-10T02:25:33.070Z,42.20
2023-04-10T02:28:05.444Z,43.00
2023-04-10T02:30:33.643Z,41.90
2023-04-10T02:33:03.100Z,43.10
2023-04-10T02:35:31.013Z,42.17
2023-04-10T02:37:58.944Z,42.40
2023-04-10T02:40:26.876Z,41.00
2023-04-10T02:42:54.793Z,41.75
2023-04-10T02:45:22.776Z,42.20
2023-04-10T02:47:50.699Z,42.35
2023-04-10T02:50:20.129Z,41.60
2023-04-10T02:52:48.289Z,42.60
2023-04-10T02:55:16.473Z,41.60
2023-04-10T02:57:44.376Z,41.45
2023-04-10T03:00:13.299Z,42.45
2023-04-10T03:02:41.280Z,42.60
2023-04-10T03:05:10.067Z,42.27
2023-04-10T03:07:39.378Z,41.70
2023-04-10T03:10:08.390Z,42.83
2023-04-10T03:12:36.318Z,43.60
2023-04-10T03:15:04.397Z,41.92
2023-04-10T03:17:32.352Z,42.60
2023-04-10T03:20:00.322Z,41.55
2023-04-10T03:22:31.700Z,42.13
2023-04-10T03:25:01.473Z,41.80
2023-04-10T03:27:32.104Z,42.63
2023-04-10T03:30:00.740Z,41.97
2023-04-10T03:32:31.151Z,42.58
2023-04-10T03:34:59.507Z,42.08
2023-04-10T03:37:28.405Z,41.60
2023-04-10T03:39:56.541Z,41.90
2023-04-10T03:42:26.027Z,42.60
2023-04-10T03:44:54.027Z,42.40
2023-04-10T03:47:21.990Z,41.80
2023-04-10T03:49:49.998Z,41.90
2023-04-10T03:52:17.913Z,42.28
2023-04-10T03:54:45.971Z,42.10
2023-04-10T03:57:13.920Z,42.07
2023-04-10T03:59:43.281Z,42.30
2023-04-10T04:02:11.396Z,42.95
2023-04-10T04:04:39.808Z,42.10
2023-04-10T04:07:08.818Z,42.92
2023-04-10T04:09:36.895Z,41.80
2023-04-10T04:12:04.981Z,42.40
2023-04-10T04:14:32.871Z,41.70
2023-04-10T04:17:02.344Z,41.93
2023-04-10T04:19:30.406Z,41.78
2023-04-10T04:22:00.375Z,42.20
2023-04-10T04:24:28.354Z,42.00
2023-04-10T04:26:57.169Z,41.90
2023-04-10T04:29:25.153Z,42.00
2023-04-10T04:31:53.342Z,41.60
2023-04-10T04:34:22.816Z,41.80
2023-04-10T04:36:50.746Z,42.05
2023-04-10T04:39:18.693Z,41.50
2023-04-10T04:41:46.600Z,41.90
2023-04-10T04:44:14.501Z,41.90
2023-04-10T04:46:44.535Z,41.92
2023-04-10T04:49:12.802Z,42.17
2023-04-10T04:51:42.072Z,41.60
2023-04-10T04:54:09.969Z,41.30
2023-04-10T04:56:37.921Z,42.10
2023-04-10T04:59:05.886Z,41.92
2023-04-10T05:01:33.903Z,41.80
2023-04-10T05:04:01.964Z,41.70
2023-04-10T05:06:29.958Z,41.90
2023-04-10T05:08:59.143Z,41.15
2023-04-10T05:11:27.017Z,41.80
2023-04-10T05:13:54.946Z,41.70
2023-04-10T05:16:22.937Z,41.75
2023-04-10T05:18:50.921Z,41.78
2023-04-10T05:21:18.914Z,41.70
2023-04-10T05:23:46.811Z,41.92
2023-04-10T05:26:16.195Z,42.70
2023-04-10T05:28:44.059Z,42.10
2023-04-10T05:31:11.951Z,42.75
2023-04-10T05:33:39.933Z,41.80
2023-04-10T05:36:08.529Z,41.60
2023-04-10T05:38:36.619Z,42.00
2023-04-10T05:41:04.482Z,42.10
2023-04-10T05:43:33.781Z,42.90
2023-04-10T05:46:01.902Z,41.83
2023-04-10T05:48:29.904Z,42.33
2023-04-10T05:50:57.815Z,41.97
2023-04-10T05:53:31.117Z,42.10
2023-04-10T05:55:59.404Z,41.80
2023-04-10T05:58:27.884Z,42.50
2023-04-10T06:00:58.533Z,42.33
2023-04-10T06:03:29.332Z,42.60
2023-04-10T06:05:57.645Z,42.40
2023-04-10T06:08:25.618Z,43.10
2023-04-10T06:10:53.545Z,42.00
2023-04-10T06:13:21.598Z,42.20
2023-04-10T06:15:49.506Z,41.80
2023-04-10T06:18:18.858Z,42.00
2023-04-10T06:20:46.860Z,43.75
2023-04-10T06:23:15.890Z,42.30
2023-04-10T06:25:44.730Z,42.33
2023-04-10T06:28:12.660Z,43.00
2023-04-10T06:30:40.716Z,43.03
2023-04-10T06:33:08.653Z,43.17
2023-04-10T06:35:38.566Z,42.75
2023-04-10T06:38:06.763Z,42.90
2023-04-10T06:40:35.028Z,42.90
2023-04-10T06:43:02.927Z,43.83
2023-04-10T06:45:31.148Z,45.17
2023-04-10T06:47:59.121Z,45.10
2023-04-10T06:50:27.097Z,44.40
2023-04-10T06:52:59.842Z,44.60
2023-04-10T06:55:27.974Z,45.38
2023-04-10T06:57:56.525Z,43.80
2023-04-10T07:00:25.061Z,46.08
2023-04-10T07:02:53.160Z,44.72
2023-04-10T07:05:21.314Z,45.00
2023-04-10T07:07:50.634Z,45.80
2023-04-10T07:10:20.058Z,46.53
2023-04-10T07:12:48.037Z,46.60
2023-04-10T07:15:16.242Z,45.90
2023-04-10T07:17:44.481Z,44.93
2023-04-10T07:20:13.160Z,45.30
2023-04-10T07:22:41.123Z,44.47
2023-04-10T07:25:10.022Z,45.80
2023-04-10T07:27:39.337Z,45.92
2023-04-10T07:30:08.468Z,45.42
2023-04-10T07:32:37.488Z,46.00
2023-04-10T07:35:06.158Z,45.20
2023-04-10T07:37:34.138Z,44.90
2023-04-10T07:40:02.479Z,45.05
2023-04-10T07:42:30.991Z,45.50
2023-04-10T07:45:00.323Z,46.47
2023-04-10T07:47:28.276Z,45.75
2023-04-10T07:49:56.352Z,44.70
2023-04-10T07:52:24.206Z,45.40
2023-04-10T07:54:52.300Z,45.58
2023-04-10T07:57:20.333Z,44.20
2023-04-10T07:59:48.202Z,44.13
2023-04-10T08:02:17.532Z,46.23
2023-04-10T08:04:46.003Z,44.90
2023-04-10T08:07:14.054Z,44.88
2023-04-10T08:09:41.940Z,44.20
2023-04-10T08:12:09.844Z,45.28
2023-04-10T08:14:37.722Z,44.55
2023-04-10T08:17:05.656Z,44.50
2023-04-10T08:19:36.029Z,44.80
2023-04-10T08:22:04.305Z,45.35
2023-04-10T08:24:32.171Z,45.55
2023-04-10T08:27:00.076Z,45.50
2023-04-10T08:29:28.021Z,44.65
2023-04-10T08:31:56.484Z,45.10
2023-04-10T08:34:24.453Z,45.50
2023-04-10T08:36:53.764Z,44.90
2023-04-10T08:39:21.723Z,45.60
2023-04-10T08:41:49.851Z,45.45
2023-04-10T08:44:17.953Z,45.10
2023-04-10T08:46:46.437Z,45.60
2023-04-10T08:49:24.303Z,45.83
2023-04-10T08:51:58.649Z,46.90
2023-04-10T08:54:29.655Z,47.50
2023-04-10T08:56:58.528Z,45.70
2023-04-10T08:59:26.611Z,45.70
2023-04-10T09:01:55.080Z,46.00
2023-04-10T09:04:23.242Z,46.95
2023-04-10T09:06:51.260Z,46.97
2023-04-10T09:09:20.717Z,47.20
2023-04-10T09:12:01.251Z,46.00
2023-04-10T09:14:30.566Z,46.72
2023-04-10T09:17:17.144Z,46.30
2023-04-10T09:19:46.230Z,47.30
2023-04-10T09:22:14.514Z,47.78
2023-04-10T09:24:45.229Z,46.50
2023-04-10T09:27:29.433Z,46.05
2023-04-10T09:29:57.291Z,48.05
2023-04-10T09:32:38.654Z,47.30
2023-04-10T09:35:08.491Z,48.28
2023-04-10T09:37:37.288Z,47.53
2023-04-10T09:40:20.198Z,47.80
2023-04-10T09:42:48.090Z,47.58
2023-04-10T09:45:19.753Z,47.72
2023-04-10T09:48:02.721Z,47.20
2023-04-10T09:50:38.859Z,47.17
2023-04-10T09:53:07.885Z,46.95
2023-04-10T09:55:37.787Z,46.65
2023-04-10T09:58:06.389Z,46.88
2023-04-10T10:00:39.812Z,47.60
2023-04-10T10:03:10.416Z,48.13
2023-04-10T10:05:43.554Z,47.60
2023-04-10T10:08:12.652Z,47.90
2023-04-10T10:10:47.800Z,46.80
2023-04-10T10:13:19.002Z,46.20
2023-04-10T10:15:52.995Z,46.65
2023-04-10T10:18:26.772Z,46.40
2023-04-10T10:20:54.935Z,47.42
2023-04-10T10:23:23.272Z,48.33
2023-04-10T10:25:53.547Z,47.33
2023-04-10T10:28:22.450Z,47.33
2023-04-10T10:30:51.299Z,47.20
2023-04-10T10:33:19.455Z,48.45
2023-04-10T10:35:47.808Z,47.90
2023-04-10T10:38:16.580Z,46.80
2023-04-10T10:40:52.769Z,46.97
2023-04-10T10:43:27.800Z,47.30
2023-04-10T10:46:00.959Z,48.05
2023-04-10T10:48:29.266Z,46.83
2023-04-10T10:50:59.006Z,47.83
2023-04-10T10:53:34.993Z,47.60
2023-04-10T10:56:37.031Z,49.28
2023-04-10T10:59:06.296Z,47.70
2023-04-10T11:01:34.269Z,47.73
2023-04-10T11:04:02.428Z,48.28
2023-04-10T11:06:53.077Z,47.50
2023-04-10T11:09:46.888Z,47.72
2023-04-10T11:12:14.768Z,48.17
2023-04-10T11:14:46.058Z,48.30
2023-04-10T11:17:13.896Z,47.80
2023-04-10T11:20:07.820Z,49.00
2023-04-10T11:23:09.000Z,48.25
2023-04-10T11:25:53.123Z,48.53
2023-04-10T11:28:40.330Z,48.40
2023-04-10T11:31:22.208Z,48.50
2023-04-10T11:34:01.440Z,50.17
2023-04-10T11:36:29.426Z,49.43
2023-04-10T11:38:59.104Z,48.33
2023-04-10T11:41:31.792Z,49.40
2023-04-10T11:44:00.359Z,49.60
2023-04-10T11:46:30.340Z,48.10
2023-04-10T11:49:00.622Z,48.28
2023-04-10T11:51:29.236Z,48.58
2023-04-10T11:54:08.132Z,48.30
2023-04-10T11:56:36.393Z,47.72
2023-04-10T11:59:07.372Z,48.40
2023-04-10T12:01:37.416Z,47.60
2023-04-10T12:04:07.860Z,49.80
2023-04-10T12:06:36.233Z,47.90
2023-04-10T12:09:15.631Z,49.37
2023-04-10T12:11:50.650Z,49.47
2023-04-10T12:14:18.960Z,49.10
2023-04-10T12:16:48.713Z,49.17
2023-04-10T12:19:17.884Z,48.78
2023-04-10T12:21:47.097Z,49.05
2023-04-10T12:24:34.957Z,49.00
2023-04-10T12:27:04.228Z,48.80
2023-04-10T12:29:32.106Z,48.00
2023-04-10T12:32:07.869Z,49.30
2023-04-10T12:34:35.775Z,49.95
2023-04-10T12:37:04.495Z,49.05
2023-04-10T12:39:32.316Z,48.45
2023-04-10T12:42:14.752Z,49.10
2023-04-10T12:44:53.017Z,48.57
2023-04-10T12:47:21.080Z,49.00
2023-04-10T12:50:13.996Z,48.47
2023-04-10T12:52:44.290Z,49.30
2023-04-10T12:55:15.418Z,49.00
2023-04-10T12:57:46.132Z,48.05
2023-04-10T13:00:18.368Z,49.10
2023-04-10T13:02:47.286Z,49.50
2023-04-10T13:05:15.666Z,48.70
2023-04-10T13:07:43.627Z,49.70
2023-04-10T13:10:11.649Z,48.70
2023-04-10T13:12:40.555Z,48.90
2023-04-10T13:15:10.767Z,49.17
2023-04-10T13:17:38.711Z,51.47
2023-04-10T13:20:07.842Z,48.57
2023-04-10T13:22:35.808Z,51.25
2023-04-10T13:25:04.294Z,49.50
2023-04-10T13:27:32.395Z,49.70
2023-04-10T13:30:00.266Z,49.00
2023-04-10T13:32:29.604Z,50.70
2023-04-10T13:34:57.511Z,49.25
2023-04-10T13:37:26.483Z,48.20
2023-04-10T13:39:54.777Z,50.72
2023-04-10T13:42:22.637Z,50.95
2023-04-10T13:44:50.511Z,50.00
2023-04-10T13:47:18.406Z,49.05
2023-04-10T13:49:47.577Z,49.20
2023-04-10T13:52:15.368Z,50.40
2023-04-10T13:54:43.179Z,48.92
2023-04-10T13:57:11.053Z,48.15
2023-04-10T13:59:38.885Z,49.03
2023-04-10T14:02:06.909Z,51.08
2023-04-10T14:04:34.758Z,50.13
2023-04-10T14:07:03.969Z,48.78
2023-04-10T14:09:31.892Z,48.92
2023-04-10T14:11:59.758Z,49.33
2023-04-10T14:14:27.582Z,47.40
2023-04-10T14:16:55.434Z,48.10
2023-04-10T14:19:23.407Z,47.90
2023-04-10T14:21:51.189Z,48.20
2023-04-10T14:24:21.329Z,48.40
2023-04-10T14:26:49.180Z,47.60
2023-04-10T14:29:20.193Z,47.53
2023-04-10T14:31:57.590Z,49.43
2023-04-10T14:34:26.303Z,47.72
2023-04-10T14:36:55.914Z,47.67
2023-04-10T14:39:26.342Z,48.00
2023-04-10T14:41:54.287Z,48.05
2023-04-10T14:44:22.140Z,47.75
2023-04-10T14:46:50.069Z,47.20
2023-04-10T14:49:17.932Z,49.03
2023-04-10T14:51:46.116Z,48.50
2023-04-10T14:54:13.922Z,47.60
2023-04-10T14:56:43.172Z,49.58
2023-04-10T14:59:11.465Z,48.63
2023-04-10T15:01:39.388Z,48.10
2023-04-10T15:04:07.529Z,48.40
2023-04-10T15:06:35.610Z,47.75
2023-04-10T15:09:04.503Z,47.38
2023-04-10T15:11:32.385Z,48.80
2023-04-10T15:14:02.229Z,47.70
2023-04-10T15:16:30.645Z,49.33
2023-04-10T15:18:58.508Z,47.63
2023-04-10T15:21:27.274Z,48.33
2023-04-10T15:23:55.429Z,50.10
2023-04-10T15:26:23.691Z,48.65
2023-04-10T15:28:51.545Z,46.80
2023-04-10T15:31:23.369Z,47.40
2023-04-10T15:33:52.884Z,48.30
2023-04-10T15:36:21.003Z,48.55
2023-04-10T15:38:50.210Z,47.70
2023-04-10T15:41:18.516Z,47.30
2023-04-10T15:43:46.396Z,48.47
2023-04-10T15:46:15.765Z,47.30
2023-04-10T15:48:45.873Z,48.00
2023-04-10T15:51:13.748Z,48.90
2023-04-10T15:53:41.661Z,48.50
2023-04-10T15:56:09.833Z,47.77
2023-04-10T15:58:37.665Z,45.63
2023-04-10T16:01:06.210Z,45.73
2023-04-10T16:03:34.248Z,46.23
2023-04-10T16:06:03.626Z,47.55
2023-04-10T16:08:31.542Z,45.43
2023-04-10T16:10:59.433Z,44.17
2023-04-10T16:13:27.306Z,47.65
2023-04-10T16:15:55.154Z,44.30
2023-04-10T16:18:23.102Z,46.63
2023-04-10T16:20:50.999Z,46.55
2023-04-10T16:23:20.193Z,47.15
2023-04-10T16:25:48.039Z,46.50
2023-04-10T16:28:15.992Z,47.70
2023-04-10T16:30:43.852Z,47.37
2023-04-10T16:33:11.814Z,45.27
2023-04-10T16:35:39.916Z,46.42
2023-04-10T16:38:07.905Z,47.30
2023-04-10T16:40:37.481Z,47.13
2023-04-10T16:43:05.364Z,47.75
2023-04-10T16:45:33.161Z,47.40
2023-04-10T16:48:01.059Z,50.40
2023-04-10T16:50:28.929Z,48.20
2023-04-10T16:52:56.770Z,48.00
2023-04-10T16:55:24.573Z,47.10
2023-04-10T16:57:53.749Z,45.60
2023-04-10T17:00:21.781Z,46.80
2023-04-10T17:02:49.829Z,46.78
2023-04-10T17:05:17.735Z,46.90
2023-04-10T17:07:45.596Z,46.88
2023-04-10T17:10:13.437Z,45.23
2023-04-10T17:12:42.366Z,45.20
2023-04-10T17:15:12.619Z,46.03
2023-04-10T17:17:40.648Z,44.50
2023-04-10T17:20:09.959Z,43.70
2023-04-10T17:22:38.789Z,45.77
2023-04-10T17:25:08.375Z,43.83
2023-04-10T17:27:39.048Z,45.50
2023-04-10T17:30:15.043Z,46.10
2023-04-10T17:32:43.401Z,44.20
2023-04-10T17:35:11.468Z,44.20
2023-04-10T17:37:39.320Z,43.07
2023-04-10T17:40:08.585Z,43.80
2023-04-10T17:42:36.429Z,43.10
2023-04-10T17:45:04.549Z,43.27
2023-04-10T17:47:33.903Z,44.30
2023-04-10T17:50:01.830Z,42.57
2023-04-10T17:52:29.854Z,42.83
2023-04-10T17:54:57.826Z,44.53
2023-04-10T17:57:26.188Z,46.37
2023-04-10T17:59:55.299Z,43.97
2023-04-10T18:02:23.289Z,45.17
2023-04-10T18:04:52.527Z,44.53
2023-04-10T18:07:20.450Z,42.93
2023-04-10T18:09:48.282Z,42.23
2023-04-10T18:12:16.129Z,42.37
2023-04-10T18:14:44.801Z,43.63
2023-04-10T18:17:12.711Z,42.10
2023-04-10T18:19:40.534Z,42.40
2023-04-10T18:22:09.870Z,43.90
2023-04-10T18:24:37.736Z,43.87
2023-04-10T18:27:06.276Z,42.30
2023-04-10T18:29:34.165Z,42.50
2023-04-10T18:32:02.005Z,45.03
2023-04-10T18:34:29.917Z,44.97
2023-04-10T18:36:59.028Z,41.83
2023-04-10T18:39:28.381Z,42.97
2023-04-10T18:41:57.268Z,47.40
2023-04-10T18:44:25.205Z,42.77
2023-04-10T18:47:01.121Z,46.17
2023-04-10T18:49:31.791Z,47.80
2023-04-10T18:51:59.684Z,42.80
2023-04-10T18:54:29.704Z,43.97
2023-04-10T18:56:57.585Z,42.90
2023-04-10T18:59:25.644Z,44.33
2023-04-10T19:01:53.657Z,42.87
2023-04-10T19:04:21.847Z,45.33
2023-04-10T19:06:49.804Z,44.53
2023-04-10T19:09:17.685Z,42.47
2023-04-10T19:11:47.133Z,42.20
2023-04-10T19:14:15.011Z,43.27
2023-04-10T19:16:42.888Z,49.20
2023-04-10T19:19:10.770Z,41.53
2023-04-10T19:21:38.707Z,47.00
2023-04-10T19:24:06.920Z,43.77
2023-04-10T19:26:34.890Z,41.43
2023-04-10T19:29:04.237Z,41.43
2023-04-10T19:31:32.842Z,48.23
2023-04-10T19:34:02.424Z,43.13
2023-04-10T19:36:32.112Z,40.67
2023-04-10T19:39:00.261Z,41.30
2023-04-10T19:41:28.226Z,40.90
2023-04-10T19:43:56.398Z,40.93
2023-04-10T19:46:25.881Z,41.07
2023-04-10T19:48:54.511Z,40.73
2023-04-10T19:51:22.412Z,44.97
2023-04-10T19:53:50.265Z,47.83
2023-04-10T19:56:18.143Z,42.47
2023-04-10T19:58:56.208Z,46.53
2023-04-10T20:01:25.713Z,40.60
2023-04-10T20:03:53.720Z,48.20
2023-04-10T20:06:22.548Z,46.27
2023-04-10T20:08:50.540Z,42.90
2023-04-10T20:11:18.482Z,39.67
2023-04-10T20:13:46.337Z,46.70
2023-04-10T20:16:14.297Z,54.00
2023-04-10T20:18:43.566Z,47.00
2023-04-10T20:21:11.465Z,55.43
2023-04-10T20:23:39.361Z,50.00
2023-04-10T20:26:07.382Z,43.03
2023-04-10T20:28:35.365Z,39.37
2023-04-10T20:31:03.337Z,39.30
2023-04-10T20:33:31.302Z,43.70
2023-04-10T20:36:00.880Z,44.23
2023-04-10T20:38:28.796Z,39.57
2023-04-10T20:40:56.831Z,38.50
2023-04-10T20:43:26.371Z,38.00
2023-04-10T20:45:54.527Z,39.23
2023-04-10T20:48:22.485Z,40.87
2023-04-10T20:50:50.689Z,44.13
2023-04-10T20:53:20.008Z,39.43
2023-04-10T20:55:47.917Z,44.80
2023-04-10T20:58:15.829Z,39.40
2023-04-10T21:00:43.785Z,40.03
2023-04-10T21:03:11.889Z,40.30
2023-04-10T21:05:41.332Z,42.80
2023-04-10T21:08:09.256Z,40.33
2023-04-10T21:10:43.894Z,42.20
2023-04-10T21:13:13.060Z,40.87
2023-04-10T21:15:41.181Z,45.10
2023-04-10T21:18:09.079Z,44.23
2023-04-10T21:20:36.984Z,47.00
2023-04-10T21:23:05.007Z,42.00
2023-04-10T21:25:33.929Z,43.30
2023-04-10T21:28:03.439Z,42.50
2023-04-10T21:30:31.342Z,40.43
2023-04-10T21:32:59.319Z,44.30
2023-04-10T21:35:27.818Z,42.43
2023-04-10T21:37:59.398Z,41.63
2023-04-10T21:40:33.860Z,41.73
2023-04-10T21:43:03.443Z,41.17
2023-04-10T21:45:31.956Z,42.37
2023-04-10T21:48:00.734Z,44.40
2023-04-10T21:50:28.766Z,41.80
2023-04-10T21:52:56.779Z,40.50
2023-04-10T21:55:24.825Z,44.63
2023-04-10T21:57:52.800Z,44.63
2023-04-10T22:00:23.165Z,40.83
2023-04-10T22:02:52.205Z,42.13
2023-04-10T22:05:20.471Z,40.93
2023-04-10T22:07:48.667Z,39.87
2023-04-10T22:10:16.748Z,39.60
2023-04-10T22:12:46.005Z,44.50
2023-04-10T22:15:15.879Z,40.90
2023-04-10T22:17:45.401Z,43.00
2023-04-10T22:20:13.717Z,40.80
2023-04-10T22:22:41.623Z,42.13
2023-04-10T22:25:09.820Z,43.73
2023-04-10T22:27:37.756Z,44.67
2023-04-10T22:30:06.583Z,44.90
2023-04-10T22:32:34.759Z,45.75
2023-04-10T22:35:04.022Z,45.75
2023-04-10T22:37:31.932Z,46.30
2023-04-10T22:40:00.490Z,47.65
2023-04-10T22:42:31.212Z,46.28
2023-04-10T22:44:59.919Z,48.22
2023-04-10T22:47:27.975Z,43.97
2023-04-10T22:49:55.867Z,44.65
2023-04-10T22:52:25.282Z,45.60
2023-04-10T22:54:53.220Z,44.75
2023-04-10T22:57:21.148Z,43.50
2023-04-10T22:59:49.619Z,44.70
2023-04-10T23:02:17.823Z,45.33
2023-04-10T23:04:45.844Z,45.30
2023-04-10T23:07:13.770Z,44.25
2023-04-10T23:09:43.250Z,45.40
2023-04-10T23:12:11.144Z,44.50
2023-04-10T23:14:39.013Z,44.00
2023-04-10T23:17:06.920Z,45.28
2023-04-10T23:19:34.895Z,42.78
2023-04-10T23:22:03.055Z,45.90
2023-04-10T23:24:30.989Z,46.25
2023-04-10T23:27:00.370Z,44.28
2023-04-10T23:29:28.365Z,45.90
2023-04-10T23:31:56.315Z,44.60
2023-04-10T23:34:26.483Z,43.08
2023-04-10T23:36:54.544Z,43.92
2023-04-10T23:39:22.537Z,43.60
2023-04-10T23:41:50.487Z,44.30
2023-04-10T23:44:19.918Z,45.05
2023-04-10T23:46:49.462Z,43.90
2023-04-10T23:49:17.872Z,42.80
2023-04-10T23:51:46.202Z,44.53
2023-04-10T23:54:14.249Z,56.42
2023-04-10T23:56:42.183Z,48.00
2023-04-10T23:59:10.036Z,45.55
